Time;durP1;ratioP1;P1;durP2;ratioP2;P2;SDS_P1;SDS_P2;PMS_P1;PMS_P2;Temp;Humidity;BMP_temperature;BMP_pressure;BME280_temperature;BME280_humidity;BME280_pressure;Samples;Min_cycle;Max_cycle;Signal;HPM_P1;HPM_P2
2022/12/17 13:07:29;;;;;;;84.10;24.80;;;;;;;-4.70;100.00;100184.38;98931;1361;24440;-34
2022/12/17 13:09:57;;;;;;;90.50;27.50;;;;;;;-4.59;100.00;100186.60;98897;1367;24888;-31
2022/12/17 13:12:47;;;;;;;78.70;27.00;;;;;;;-4.53;100.00;100191.02;98952;1356;22748;-29
2022/12/17 13:15:19;;;;;;;82.20;27.80;;;;;;;-4.63;100.00;100190.47;98857;1354;24288;-35
2022/12/17 13:18:09;;;;;;;77.10;18.50;;;;;;;-4.71;100.00;100195.11;98917;1369;25520;-29
2022/12/17 13:20:35;;;;;;;78.90;23.40;;;;;;;-4.73;100.00;100202.88;98848;1360;25781;-29
2022/12/17 13:23:17;;;;;;;78.10;21.70;;;;;;;-4.83;100.00;100207.73;98890;1356;22822;-35
2022/12/17 13:25:42;;;;;;;79.70;20.30;;;;;;;-4.85;100.00;100208.39;98944;1374;22612;-30
2022/12/17 13:28:27;;;;;;;65.10;18.40;;;;;;;-4.85;100.00;100213.83;98954;1360;22709;-35
2022/12/17 13:31:05;;;;;;;82.20;24.60;;;;;;;-4.90;100.00;100217.71;98954;1357;22746;-35
2022/12/17 13:33:50;;;;;;;50.60;15.00;;;;;;;-4.90;100.00;100219.98;99013;1353;22828;-31
2022/12/17 13:36:30;;;;;;;77.80;23.70;;;;;;;-4.93;100.00;100223.12;98855;1352;24484;-29
2022/12/17 13:39:03;;;;;;;99.50;27.10;;;;;;;-5.03;100.00;100226.58;98928;1357;24297;-34
2022/12/17 13:41:30;;;;;;;69.90;25.00;;;;;;;-5.05;100.00;100225.13;98939;1347;23043;-31
2022/12/17 13:43:57;;;;;;;52.60;16.80;;;;;;;-5.06;100.00;100226.94;98997;1356;22739;-30
2022/12/17 13:46:25;;;;;;;73.90;18.30;;;;;;;-5.10;100.00;100234.66;98881;1347;24405;-33
2022/12/17 13:48:59;;;;;;;84.30;20.90;;;;;;;-5.21;100.00;100236.92;98919;1372;24473;-35
2022/12/17 13:51:27;;;;;;;46.10;14.40;;;;;;;-5.27;100.00;100239.83;98936;1368;25500;-35
2022/12/17 13:54:00;;;;;;;63.20;18.60;;;;;;;-5.23;100.00;100245.23;98923;1374;24280;-33
2022/12/17 13:56:27;;;;;;;59.90;18.40;;;;;;;-5.33;100.00;100255.70;98975;1360;23172;-34
2022/12/17 13:58:54;;;;;;;83.00;22.70;;;;;;;-5.30;100.00;100261.13;98852;1360;23092;-30
2022/12/17 14:01:19;;;;;;;104.30;24.10;;;;;;;-5.31;100.00;100268.83;98861;1356;23179;-31
2022/12/17 14:03:50;;;;;;;73.20;21.30;;;;;;;-5.40;100.00;100275.20;98867;1364;24483;-30
2022/12/17 14:06:16;;;;;;;90.10;27.10;;;;;;;-5.36;100.00;100277.10;98911;1361;23211;-34
2022/12/17 14:08:41;;;;;;;62.30;17.40;;;;;;;-5.30;100.00;100276.66;98850;1356;22980;-34
2022/12/17 14:13:36;;;;;;;115.40;29.40;;;;;;;-5.22;100.00;100280.59;98849;1357;22619;-34
2022/12/17 14:16:01;;;;;;;82.90;25.50;;;;;;;-5.16;100.00;100290.63;98890;1373;22616;-34
2022/12/17 14:18:27;;;;;;;85.40;25.60;;;;;;;-5.26;100.00;100291.98;98907;1356;22615;-34
2022/12/17 14:20:53;;;;;;;95.70;24.30;;;;;;;-5.27;100.00;100295.17;98898;1364;22689;-31
2022/12/17 14:23:30;;;;;;;69.60;19.90;;;;;;;-5.25;100.00;100294.04;98928;1356;22882;-36
2022/12/17 14:25:56;;;;;;;75.50;21.60;;;;;;;-5.36;100.00;100297.23;98914;1363;22860;-35
2022/12/17 14:28:34;;;;;;;109.00;30.60;;;;;;;-5.37;100.00;100302.63;98894;1356;24314;-35
2022/12/17 14:31:18;;;;;;;99.90;30.70;;;;;;;-5.41;100.00;100309.29;98951;1362;24351;-30
2022/12/17 14:33:44;;;;;;;100.20;29.20;;;;;;;-5.40;100.00;100313.95;98966;1368;25508;-29
2022/12/17 14:36:20;;;;;;;84.10;21.50;;;;;;;-5.43;100.00;100315.98;98832;1352;22854;-34
2022/12/17 14:38:55;;;;;;;115.60;28.70;;;;;;;-5.47;100.00;100319.19;98881;1359;23089;-36
2022/12/17 14:44:02;;;;;;;82.50;22.60;;;;;;;-5.55;100.00;100330.00;98944;1360;22623;-35
2022/12/17 14:46:28;;;;;;;59.40;20.60;;;;;;;-5.54;100.00;100337.81;98996;1362;22701;-30
2022/12/17 14:51:37;;;;;;;98.30;27.30;;;;;;;-5.53;100.00;100350.85;98884;1368;24441;-34
2022/12/17 14:54:06;;;;;;;76.10;22.00;;;;;;;-5.57;100.00;100353.52;98894;1357;22853;-35
2022/12/17 14:56:31;;;;;;;80.80;21.70;;;;;;;-5.57;100.00;100356.45;98970;1357;23480;-35
2022/12/17 14:58:57;;;;;;;93.20;28.90;;;;;;;-5.59;100.00;100359.86;98899;1361;24483;-31
2022/12/17 15:01:23;;;;;;;90.50;27.90;;;;;;;-5.60;100.00;100364.10;98929;1357;25584;-30
2022/12/17 15:03:48;;;;;;;98.50;25.40;;;;;;;-5.59;100.00;100368.95;98822;1375;23101;-35
2022/12/17 15:06:16;;;;;;;85.00;23.70;;;;;;;-5.56;100.00;100375.27;98938;1374;24280;-32
2022/12/17 15:08:43;;;;;;;69.10;21.20;;;;;;;-5.58;100.00;100377.81;98897;1366;23079;-29
2022/12/17 15:11:14;;;;;;;66.30;19.40;;;;;;;-5.58;100.00;100376.20;99068;1373;22744;-30
2022/12/17 15:13:40;;;;;;;118.20;18.60;;;;;;;-5.57;100.00;100378.60;98930;1365;22698;-34
2022/12/17 15:16:06;;;;;;;85.90;24.90;;;;;;;-5.58;100.00;100380.24;98876;1375;24817;-35
2022/12/17 15:18:31;;;;;;;74.20;22.80;;;;;;;-5.57;100.00;100381.77;98794;1354;22629;-34
2022/12/17 15:20:57;;;;;;;76.60;21.20;;;;;;;-5.53;100.00;100381.42;98855;1357;22613;-35
2022/12/17 15:23:23;;;;;;;64.20;17.80;;;;;;;-5.60;100.00;100380.85;98917;1357;22732;-34
2022/12/17 15:25:49;;;;;;;54.30;15.50;;;;;;;-5.61;100.00;100373.04;98948;1360;23079;-34
2022/12/17 15:28:16;;;;;;;78.80;21.00;;;;;;;-5.62;100.00;100378.34;98941;1356;24373;-29
2022/12/17 15:30:41;;;;;;;72.30;20.40;;;;;;;-5.61;100.00;100377.75;98921;1356;24332;-33
2022/12/17 15:33:07;;;;;;;69.30;18.80;;;;;;;-5.57;100.00;100384.22;98973;1375;23099;-29
2022/12/17 15:35:33;;;;;;;57.50;16.00;;;;;;;-5.58;100.00;100390.67;98911;1356;23208;-31
2022/12/17 15:37:59;;;;;;;61.20;13.10;;;;;;;-5.57;100.00;100393.98;98972;1356;23092;-30
2022/12/17 15:40:25;;;;;;;45.50;17.30;;;;;;;-5.56;100.00;100398.11;98977;1365;23330;-30
2022/12/17 15:45:20;;;;;;;46.30;12.30;;;;;;;-5.52;100.00;100405.96;98922;1360;24541;-30
2022/12/17 15:47:45;;;;;;;47.90;16.30;;;;;;;-5.49;100.00;100403.05;98913;1356;26537;-34
2022/12/17 15:50:10;;;;;;;70.00;15.40;;;;;;;-5.48;100.00;100404.73;98905;1356;22735;-29
2022/12/17 15:52:36;;;;;;;41.30;16.20;;;;;;;-5.50;100.00;100407.06;98857;1356;22856;-34
2022/12/17 15:55:03;;;;;;;67.50;21.90;;;;;;;-5.63;100.00;100406.63;98894;1357;24346;-29
2022/12/17 15:57:29;;;;;;;73.60;19.40;;;;;;;-5.45;100.00;100406.14;98903;1372;24114;-36
2022/12/17 15:59:54;;;;;;;48.60;14.40;;;;;;;-5.58;100.00;100416.86;98873;1352;24490;-35
2022/12/17 16:02:20;;;;;;;62.70;20.30;;;;;;;-5.58;100.00;100415.83;98846;1357;24268;-30
2022/12/17 16:04:45;;;;;;;125.70;30.00;;;;;;;-5.62;100.00;100419.13;98937;1363;23047;-35
2022/12/17 16:07:11;;;;;;;54.80;19.60;;;;;;;-5.62;100.00;100417.38;98838;1358;23096;-30
2022/12/17 16:47:24;;;;;;;44.30;21.00;;;;;;;-5.54;100.00;100469.59;99099;1370;557521;-29
2022/12/17 16:49:50;;;;;;;105.00;30.80;;;;;;;-5.50;100.00;100478.79;98809;1353;295303;-31
2022/12/17 16:52:15;;;;;;;55.90;17.80;;;;;;;-5.56;100.00;100484.30;99310;1354;24347;-29
2022/12/17 16:54:41;;;;;;;42.20;15.20;;;;;;;-5.52;100.00;100490.06;99410;1366;24332;-29
2022/12/17 16:57:07;;;;;;;8.30;3.80;;;;;;;-5.54;100.00;100491.37;99333;1351;24794;-29
2022/12/17 16:59:33;;;;;;;94.10;23.30;;;;;;;-5.53;100.00;100493.05;99364;1354;23211;-29
2022/12/17 17:01:59;;;;;;;52.50;16.80;;;;;;;-5.55;100.00;100496.80;99323;1350;23231;-29
2022/12/17 17:04:24;;;;;;;74.20;25.90;;;;;;;-5.40;100.00;100499.65;99060;1353;22710;-29
2022/12/17 17:06:52;;;;;;;79.40;25.50;;;;;;;-5.46;100.00;100499.02;99298;1370;23190;-34
2022/12/17 17:09:17;;;;;;;76.50;30.70;;;;;;;-5.42;100.00;100503.25;99328;1366;24356;-34
2022/12/17 17:11:43;;;;;;;87.60;20.70;;;;;;;-5.37;100.00;100503.50;99370;1353;22851;-35
2022/12/17 17:14:09;;;;;;;104.90;30.60;;;;;;;-5.44;100.00;100512.20;99305;1353;24453;-29
2022/12/17 17:16:35;;;;;;;102.00;28.40;;;;;;;-5.46;100.00;100513.50;98863;1361;22994;-30
2022/12/17 17:19:00;;;;;;;174.70;33.10;;;;;;;-5.33;100.00;100516.25;99365;1366;22868;-29
2022/12/17 17:21:31;;;;;;;55.40;17.90;;;;;;;-5.47;100.00;100518.98;99348;1367;24475;-29
2022/12/17 17:24:00;;;;;;;110.70;29.00;;;;;;;-5.46;100.00;100519.83;99414;1367;24348;-34
2022/12/17 17:26:26;;;;;;;142.40;29.90;;;;;;;-5.44;100.00;100526.85;99377;1344;24160;-30
2022/12/17 17:28:52;;;;;;;179.00;40.90;;;;;;;-5.43;100.00;100525.06;99324;1353;24399;-29
2022/12/17 17:31:18;;;;;;;104.20;30.60;;;;;;;-5.39;100.00;100523.52;99212;1369;22722;-29
2022/12/17 17:33:45;;;;;;;78.30;23.90;;;;;;;-5.35;100.00;100523.33;99376;1353;24657;-31
2022/12/17 17:36:13;;;;;;;101.80;33.00;;;;;;;-5.36;100.00;100517.82;99123;1353;22734;-29
2022/12/17 17:38:39;;;;;;;103.40;28.00;;;;;;;-5.46;100.00;100520.34;99358;1350;22732;-35
2022/12/17 17:41:05;;;;;;;103.80;29.00;;;;;;;-5.41;100.00;100524.81;99415;1350;24348;-29
2022/12/17 17:43:31;;;;;;;87.50;26.00;;;;;;;-5.45;100.00;100525.51;99321;1351;23251;-34
2022/12/17 17:46:15;;;;;;;77.70;25.10;;;;;;;-5.40;100.00;100530.73;99068;1371;23310;-39
2022/12/17 17:48:41;;;;;;;87.40;28.70;;;;;;;-5.29;100.00;100531.61;99379;1351;23087;-34
2022/12/17 17:51:11;;;;;;;86.10;26.20;;;;;;;-5.18;100.00;100536.55;99106;1356;26544;-34
2022/12/17 17:53:37;;;;;;;72.80;29.50;;;;;;;-5.33;100.00;100540.19;99392;1349;23092;-29
2022/12/17 17:56:05;;;;;;;73.90;19.40;;;;;;;-5.41;100.00;100539.83;99356;1369;22704;-34
2022/12/17 17:58:32;;;;;;;88.30;22.30;;;;;;;-5.41;100.00;100539.50;99364;1350;24341;-30
2022/12/17 18:00:58;;;;;;;109.20;27.50;;;;;;;-5.43;100.00;100546.21;99369;1370;24682;-35
2022/12/17 18:03:23;;;;;;;68.90;20.20;;;;;;;-5.42;100.00;100552.09;99329;1354;22717;-35
2022/12/17 18:05:49;;;;;;;68.80;24.40;;;;;;;-5.39;100.00;100553.88;99391;1351;23032;-31
2022/12/17 18:08:14;;;;;;;68.80;17.90;;;;;;;-5.49;100.00;100554.85;99333;1362;24451;-34
2022/12/17 18:10:41;;;;;;;32.30;10.90;;;;;;;-5.45;100.00;100562.33;98985;1353;22730;-29
2022/12/17 18:15:36;;;;;;;70.70;20.40;;;;;;;-5.39;100.00;100570.98;99107;1360;22723;-30
2022/12/17 18:18:01;;;;;;;111.70;24.80;;;;;;;-5.41;100.00;100577.20;99022;1352;25259;-30
2022/12/17 18:20:27;;;;;;;56.10;17.40;;;;;;;-5.44;100.00;100580.45;99355;1350;25045;-36
2022/12/17 18:22:52;;;;;;;50.60;18.40;;;;;;;-5.33;100.00;100582.93;99322;1354;22853;-29
2022/12/17 18:25:17;;;;;;;90.50;25.20;;;;;;;-5.35;100.00;100583.38;99358;1350;22856;-34
2022/12/17 18:27:43;;;;;;;96.90;21.50;;;;;;;-5.55;100.00;100586.89;98991;1353;22732;-34
2022/12/17 18:30:09;;;;;;;94.40;16.00;;;;;;;-5.53;100.00;100593.06;99209;1370;24348;-35
2022/12/17 18:32:35;;;;;;;110.80;28.00;;;;;;;-5.45;100.00;100597.09;99382;1353;24380;-35
2022/12/17 18:35:00;;;;;;;;;;;;;;;-5.48;100.00;100601.59;99080;1353;24411;-30
2022/12/17 18:37:26;;;;;;;66.60;22.60;;;;;;;-5.41;100.00;100607.88;99322;1362;22861;-35
2022/12/17 18:39:51;;;;;;;88.40;23.00;;;;;;;-5.41;100.00;100614.35;99035;1368;22849;-35
2022/12/17 18:44:45;;;;;;;91.40;21.20;;;;;;;-5.36;100.00;100617.48;99308;1362;25474;-30
2022/12/17 18:47:11;;;;;;;94.00;20.50;;;;;;;-5.32;100.00;100620.27;99356;1370;22726;-30
2022/12/17 18:49:38;;;;;;;79.20;20.20;;;;;;;-5.31;100.00;100625.27;99341;1370;22738;-33
2022/12/17 18:52:04;;;;;;;88.20;21.40;;;;;;;-5.32;100.00;100626.52;98999;1364;23288;-33
2022/12/17 18:54:29;;;;;;;74.20;20.80;;;;;;;-5.25;100.00;100635.34;99439;1352;22726;-30
2022/12/17 18:56:56;;;;;;;70.50;20.40;;;;;;;-5.22;100.00;100639.22;99382;1353;23039;-35
2022/12/17 18:59:25;;;;;;;63.80;18.60;;;;;;;-5.24;100.00;100641.91;99397;1348;23198;-30
2022/12/17 19:01:51;;;;;;;9.50;5.60;;;;;;;-5.14;100.00;100645.86;99409;1370;22604;-34
2022/12/17 19:04:17;;;;;;;50.10;15.10;;;;;;;-5.14;100.00;100645.14;99300;1350;24755;-35
2022/12/17 19:06:43;;;;;;;49.20;18.20;;;;;;;-5.11;100.00;100650.63;99403;1350;23289;-30
2022/12/17 19:09:28;;;;;;;240.60;51.00;;;;;;;-5.15;100.00;100653.91;99438;1369;23047;-34
2022/12/17 19:11:54;;;;;;;127.30;37.80;;;;;;;-5.20;100.00;100656.41;99341;1369;22611;-29
2022/12/17 19:14:21;;;;;;;89.70;23.20;;;;;;;-5.14;100.00;100654.05;99297;1351;22860;-31
2022/12/17 19:16:47;;;;;;;155.70;34.00;;;;;;;-5.23;100.00;100656.02;99359;1348;22863;-30
2022/12/17 19:19:12;;;;;;;108.10;34.30;;;;;;;-5.30;100.00;100661.52;99324;1353;22857;-28
2022/12/17 19:21:38;;;;;;;117.10;28.50;;;;;;;-5.26;100.00;100664.84;98945;1363;24355;-34
2022/12/17 19:24:06;;;;;;;105.40;28.10;;;;;;;-5.26;100.00;100665.04;99368;1370;22714;-33
2022/12/17 19:26:33;;;;;;;161.10;36.60;;;;;;;-5.23;100.00;100666.67;99057;1357;22718;-33
2022/12/17 19:28:59;;;;;;;143.70;35.10;;;;;;;-5.14;100.00;100667.48;99392;1350;22876;-34
2022/12/17 19:31:26;;;;;;;276.90;54.40;;;;;;;-5.17;100.00;100672.16;99362;1350;24839;-29
2022/12/17 19:34:00;;;;;;;199.00;52.30;;;;;;;-5.24;100.00;100680.12;99360;1361;24471;-34
2022/12/17 19:36:26;;;;;;;52.20;23.20;;;;;;;-5.09;100.00;100680.89;99375;1350;24844;-34
2022/12/17 19:38:52;;;;;;;86.70;25.50;;;;;;;-5.14;100.00;100682.33;99326;1350;23139;-30
2022/12/17 19:41:18;;;;;;;78.80;24.30;;;;;;;-5.13;100.00;100684.40;99347;1352;23521;-35
2022/12/17 19:43:45;;;;;;;75.50;17.80;;;;;;;-5.15;100.00;100689.72;99365;1351;22850;-35
2022/12/17 19:46:12;;;;;;;34.40;11.70;;;;;;;-5.25;100.00;100691.34;99346;1350;22739;-30
2022/12/17 19:48:39;;;;;;;120.20;32.40;;;;;;;-5.33;100.00;100693.80;99413;1359;23334;-35
2022/12/17 19:51:05;;;;;;;124.90;31.60;;;;;;;-5.32;100.00;100700.57;99290;1353;24354;-33
2022/12/17 19:53:31;;;;;;;80.20;20.40;;;;;;;-5.27;100.00;100707.65;99390;1367;24829;-31
2022/12/17 19:56:08;;;;;;;46.60;17.60;;;;;;;-5.35;100.00;100709.59;99092;1363;22722;-30
2022/12/17 19:58:33;;;;;;;75.70;19.70;;;;;;;-5.23;100.00;100707.52;99436;1370;23979;-35
2022/12/17 20:01:09;;;;;;;123.70;25.20;;;;;;;-5.33;100.00;100714.20;99315;1370;23069;-35
2022/12/17 20:03:35;;;;;;;24.40;13.70;;;;;;;-5.31;100.00;100721.46;99319;1370;24355;-35
2022/12/17 20:06:01;;;;;;;84.20;20.00;;;;;;;-5.24;100.00;100722.38;99316;1370;25528;-30
2022/12/17 20:08:27;;;;;;;90.70;19.40;;;;;;;-5.30;100.00;100725.59;99375;1354;24385;-35
2022/12/17 20:10:52;;;;;;;19.40;7.80;;;;;;;-5.20;100.00;100731.49;99350;1351;25641;-35
2022/12/17 20:13:18;;;;;;;85.70;21.70;;;;;;;-5.23;100.00;100736.30;99355;1366;24341;-35
2022/12/17 20:15:43;;;;;;;61.10;16.90;;;;;;;-5.24;100.00;100735.82;99049;1357;23199;-30
2022/12/17 20:18:09;;;;;;;134.10;26.00;;;;;;;-5.32;100.00;100735.48;99328;1353;22843;-35
2022/12/17 20:20:34;;;;;;;117.20;28.70;;;;;;;-5.29;100.00;100731.84;99336;1360;25074;-30
2022/12/17 20:23:00;;;;;;;60.50;16.30;;;;;;;-5.28;100.00;100731.64;99373;1351;22735;-30
2022/12/17 20:25:25;;;;;;;95.40;25.00;;;;;;;-5.26;100.00;100740.95;99345;1350;22731;-30
2022/12/17 20:27:54;;;;;;;66.20;17.10;;;;;;;-5.15;100.00;100746.30;99398;1353;23075;-39
2022/12/17 20:30:24;;;;;;;63.10;19.70;;;;;;;-5.08;100.00;100743.20;99110;1360;23089;-35
2022/12/17 20:32:52;;;;;;;70.80;17.90;;;;;;;-5.16;100.00;100745.80;99077;1371;22858;-30
2022/12/17 20:35:19;;;;;;;99.80;32.00;;;;;;;-5.24;100.00;100745.60;99383;1371;22611;-33
2022/12/17 20:37:44;;;;;;;98.80;26.40;;;;;;;-5.25;100.00;100749.29;99325;1371;22720;-30
2022/12/17 20:40:10;;;;;;;74.70;17.00;;;;;;;-5.30;100.00;100752.52;99325;1353;22744;-29
2022/12/17 20:42:35;;;;;;;136.90;28.90;;;;;;;-5.28;100.00;100758.49;99040;1353;22613;-29
2022/12/17 20:45:01;;;;;;;86.40;15.40;;;;;;;-5.33;100.00;100760.48;98963;1371;24380;-34
2022/12/17 20:47:26;;;;;;;42.40;12.40;;;;;;;-5.29;100.00;100765.00;99357;1360;23284;-34
2022/12/17 20:49:52;;;;;;;55.80;14.80;;;;;;;-5.29;100.00;100764.64;99276;1371;23212;-35
2022/12/17 20:52:18;;;;;;;64.70;14.30;;;;;;;-5.30;100.00;100768.21;99317;1369;22611;-35
2022/12/17 20:54:43;;;;;;;45.00;17.20;;;;;;;-5.30;100.00;100764.03;99391;1369;23069;-29
2022/12/17 20:57:09;;;;;;;92.30;24.20;;;;;;;-5.27;100.00;100770.37;99321;1360;24470;-30
2022/12/17 20:59:34;;;;;;;85.50;19.00;;;;;;;-5.33;100.00;100771.27;99342;1353;22608;-28
2022/12/17 21:02:01;;;;;;;58.70;20.30;;;;;;;-5.25;100.00;100773.08;99357;1353;22838;-29
2022/12/17 21:04:26;;;;;;;44.50;15.20;;;;;;;-5.26;100.00;100772.55;99315;1353;23144;-29
2022/12/17 21:06:52;;;;;;;75.80;21.80;;;;;;;-5.20;100.00;100781.77;99294;1360;23173;-33
2022/12/17 21:09:19;;;;;;;67.20;20.80;;;;;;;-5.15;100.00;100782.63;99296;1358;22852;-29
2022/12/17 21:11:45;;;;;;;35.30;13.20;;;;;;;-5.20;100.00;100789.10;99318;1346;22854;-33
2022/12/17 21:14:13;;;;;;;63.60;22.50;;;;;;;-5.22;100.00;100799.98;99358;1370;24837;-34
2022/12/17 21:16:39;;;;;;;75.80;28.20;;;;;;;-5.20;100.00;100804.11;99417;1362;22729;-30
2022/12/17 21:19:05;;;;;;;44.00;14.90;;;;;;;-5.36;100.00;100807.88;99352;1370;24352;-37
2022/12/17 21:21:33;;;;;;;131.90;36.40;;;;;;;-5.45;100.00;100808.59;99333;1369;22867;-34
2022/12/17 21:23:59;;;;;;;60.20;14.80;;;;;;;-5.26;100.00;100811.85;99364;1351;23093;-34
2022/12/17 21:26:30;;;;;;;64.40;16.60;;;;;;;-5.36;100.00;100814.72;99348;1370;22614;-34
2022/12/17 21:28:55;;;;;;;151.70;29.70;;;;;;;-5.39;100.00;100813.60;99391;1370;24732;-30
2022/12/17 21:31:23;;;;;;;144.70;26.80;;;;;;;-5.46;100.00;100814.04;99389;1357;22746;-29
2022/12/17 21:33:49;;;;;;;67.80;22.90;;;;;;;-5.37;100.00;100821.54;99318;1360;24440;-34
2022/12/17 21:36:16;;;;;;;38.40;13.60;;;;;;;-5.24;100.00;100820.86;99383;1370;24292;-34
2022/12/17 21:38:41;;;;;;;68.70;23.60;;;;;;;-5.21;100.00;100818.84;99054;1353;22734;-34
2022/12/17 21:41:08;;;;;;;39.50;16.10;;;;;;;-5.25;100.00;100822.46;99336;1343;24764;-29
2022/12/17 21:43:35;;;;;;;86.70;24.50;;;;;;;-5.33;100.00;100828.71;99326;1360;24463;-34
2022/12/17 21:46:01;;;;;;;68.10;19.90;;;;;;;-5.35;100.00;100824.96;99396;1350;24732;-35
2022/12/17 21:48:27;;;;;;;85.00;22.60;;;;;;;-5.25;100.00;100832.92;99348;1350;22737;-35
2022/12/17 21:50:52;;;;;;;60.00;23.20;;;;;;;-5.35;100.00;100835.98;99287;1352;22725;-30
2022/12/17 21:53:18;;;;;;;41.70;13.40;;;;;;;-5.29;100.00;100834.15;99338;1357;23085;-34
2022/12/17 21:55:43;;;;;;;62.00;17.80;;;;;;;-5.36;100.00;100836.50;99064;1343;24447;-30
2022/12/17 21:58:09;;;;;;;23.50;12.00;;;;;;;-5.29;100.00;100836.60;99309;1360;25476;-34
2022/12/17 22:00:34;;;;;;;26.50;10.90;;;;;;;-5.32;100.00;100843.55;99302;1370;25360;-30
2022/12/17 22:03:01;;;;;;;101.10;24.70;;;;;;;-5.29;100.00;100843.06;99358;1364;22608;-29
2022/12/17 22:05:27;;;;;;;61.10;15.60;;;;;;;-5.32;100.00;100845.77;99342;1343;23266;-29
2022/12/17 22:07:52;;;;;;;21.00;6.00;;;;;;;-5.38;100.00;100847.93;99352;1370;24354;-29
2022/12/17 22:10:18;;;;;;;78.20;21.60;;;;;;;-5.39;100.00;100850.05;99359;1353;24383;-34
2022/12/17 22:15:13;;;;;;;88.10;26.10;;;;;;;-5.32;100.00;100848.75;99114;1352;24744;-30
2022/12/17 22:17:39;;;;;;;77.80;25.40;;;;;;;-5.51;100.00;100858.59;99333;1351;24339;-30
2022/12/17 22:20:05;;;;;;;73.80;22.20;;;;;;;-5.40;100.00;100862.33;99132;1353;22837;-35
2022/12/17 22:22:30;;;;;;;40.00;12.70;;;;;;;-5.40;100.00;100864.27;99285;1370;24266;-30
2022/12/17 22:24:56;;;;;;;52.80;13.90;;;;;;;-5.42;100.00;100865.38;99323;1369;24250;-35
2022/12/17 22:27:22;;;;;;;40.20;14.00;;;;;;;-5.44;100.00;100864.91;99341;1369;25057;-29
2022/12/17 22:34:47;;;;;;;64.70;20.80;;;;;;;-5.31;100.00;100870.88;99053;1355;22734;-34
2022/12/17 22:37:13;;;;;;;47.10;19.20;;;;;;;-5.33;100.00;100873.23;99406;1353;24360;-34
2022/12/17 22:39:39;;;;;;;19.40;8.60;;;;;;;-5.28;100.00;100870.27;99306;1370;24326;-28
2022/12/17 22:44:34;;;;;;;38.80;12.50;;;;;;;-5.27;100.00;100877.54;99334;1370;24386;-34
2022/12/17 22:47:00;;;;;;;31.60;11.50;;;;;;;-5.32;100.00;100878.78;99360;1359;23095;-34
2022/12/17 22:49:26;;;;;;;20.30;8.90;;;;;;;-5.36;100.00;100885.20;99121;1371;23710;-39
2022/12/17 22:51:51;;;;;;;29.40;10.90;;;;;;;-5.33;100.00;100889.81;99084;1371;24957;-28
2022/12/17 22:54:16;;;;;;;43.00;12.70;;;;;;;-5.23;100.00;100892.23;99169;1350;22854;-33
2022/12/17 22:56:42;;;;;;;58.40;16.10;;;;;;;-5.27;100.00;100893.63;99362;1360;22592;-33
2022/12/17 22:59:09;;;;;;;56.60;13.10;;;;;;;-5.38;100.00;100891.06;99360;1354;24337;-29
2022/12/17 23:01:34;;;;;;;59.20;15.60;;;;;;;-5.27;100.00;100893.77;99392;1352;23207;-28
2022/12/17 23:04:01;;;;;;;54.60;12.70;;;;;;;-5.34;100.00;100897.01;99346;1358;24448;-29
2022/12/17 23:06:27;;;;;;;49.90;13.70;;;;;;;-5.38;100.00;100902.75;99344;1352;25114;-34
2022/12/17 23:47:22;;;;;;;50.00;16.40;;;;;;;-5.54;100.00;100939.84;98940;1369;557742;-34
2022/12/17 23:49:48;;;;;;;57.70;16.00;;;;;;;-5.58;100.00;100938.06;98874;1353;294386;-34
2022/12/17 23:52:14;;;;;;;34.70;12.70;;;;;;;-5.50;100.00;100941.43;99392;1354;24270;-34
2022/12/17 23:54:40;;;;;;;39.70;11.60;;;;;;;-5.41;100.00;100937.98;99554;1350;23209;-34
2022/12/17 23:57:05;;;;;;;19.30;8.40;;;;;;;-5.49;100.00;100937.54;99349;1346;22848;-34
2022/12/17 23:59:31;;;;;;;30.30;9.20;;;;;;;-5.56;100.00;100938.33;99379;1350;22715;-30
